Biggsville, Illinois
Current Conditions -  °F | °C
As of 6:53 PM on Monday 20 Oct 2014 (Local Time) from KBRL Reporting Station
Clear Clear  
Wind Chill: 59°   Ceiling: Unl
Heat Index: 59°   Visibility: 10mi
Dew Point: 43°   Wind: 3mph
Humidity: 55%   Direction: 270°W
Pressure: 29.97"   Gusts: NA
Location:  40.85°N, 90.86°W
Report Text: KBRL 202353Z AUTO 27003KT 10SM CLR 15/06 A2997 RMK AO2 SLP150 T01500061 10206 20150 53006
Loading
Personal Weather Stations






























Interactive Weather Map New forecast layout! Learn more

10-Day Weather Forecast

Advertisements
Track Severe Weather on mobile